Time;durP1;ratioP1;P1;durP2;ratioP2;P2;SDS_P1;SDS_P2;PMS_P1;PMS_P2;Temp;Humidity;BMP_temperature;BMP_pressure;BME280_temperature;BME280_humidity;BME280_pressure;Samples;Min_cycle;Max_cycle;Signal;HPM_P1;HPM_P2
2021/08/05 00:02:19;;;;;;;18.83;16.92;;;;;;;;;;5039832;28;20415;-69
2021/08/05 00:04:44;;;;;;;19.35;17.33;;;;;;;;;;5042825;28;20182;-69
2021/08/05 00:07:11;;;;;;;20.02;17.77;;;;;;;;;;5041131;28;20181;-69
2021/08/05 00:09:38;;;;;;;17.55;15.68;;;;;;;;;;5039594;28;20332;-68
2021/08/05 00:12:04;;;;;;;16.50;14.80;;;;;;;;;;5039302;28;20224;-68
2021/08/05 00:14:29;;;;;;;16.17;14.57;;;;;;;;;;5029525;28;26500;-68
2021/08/05 00:16:54;;;;;;;16.95;15.15;;;;;;;;;;5036932;28;20173;-69
2021/08/05 00:19:19;;;;;;;20.63;18.42;;;;;;;;;;5041461;28;20208;-70
2021/08/05 00:21:45;;;;;;;18.42;16.25;;;;;;;;;;5049461;28;20189;-68
2021/08/05 00:24:10;;;;;;;19.02;17.08;;;;;;;;;;5050601;28;20700;-69
2021/08/05 00:26:35;;;;;;;15.52;14.02;;;;;;;;;;5050252;28;20554;-69
2021/08/05 00:29:00;;;;;;;17.38;15.68;;;;;;;;;;5052378;28;20225;-68
2021/08/05 00:31:25;;;;;;;22.27;19.55;;;;;;;;;;5048277;28;20265;-69
2021/08/05 00:33:51;;;;;;;21.77;19.15;;;;;;;;;;5034666;28;20577;-68
2021/08/05 00:36:16;;;;;;;22.70;20.35;;;;;;;;;;5029955;28;20189;-68
2021/08/05 00:38:41;;;;;;;22.80;20.40;;;;;;;;;;5034321;28;20209;-68
2021/08/05 00:41:06;;;;;;;24.38;21.77;;;;;;;;;;5030149;28;20185;-70
2021/08/05 00:43:34;;;;;;;24.52;21.85;;;;;;;;;;5051470;28;20177;-70
2021/08/05 00:45:59;;;;;;;22.08;19.88;;;;;;;;;;5054738;28;20561;-70
2021/08/05 00:48:24;;;;;;;26.15;23.27;;;;;;;;;;5048449;28;20206;-70
2021/08/05 00:50:50;;;;;;;25.88;22.55;;;;;;;;;;5052448;28;20197;-70
2021/08/05 00:53:15;;;;;;;27.65;24.73;;;;;;;;;;5050845;28;20205;-70
2021/08/05 00:55:41;;;;;;;29.05;26.00;;;;;;;;;;5055111;28;20231;-68
2021/08/05 00:58:06;;;;;;;31.13;27.45;;;;;;;;;;5054794;28;20189;-71
2021/08/05 01:00:31;;;;;;;29.77;26.58;;;;;;;;;;5054558;28;20747;-70
2021/08/05 01:02:59;;;;;;;32.30;28.70;;;;;;;;;;5049680;28;20228;-70
2021/08/05 01:05:27;;;;;;;32.75;29.27;;;;;;;;;;5049462;28;20185;-69
2021/08/05 01:07:55;;;;;;;31.90;27.80;;;;;;;;;;5048431;28;20730;-70
2021/08/05 01:10:23;;;;;;;30.55;26.00;;;;;;;;;;5049620;28;20185;-70
2021/08/05 01:13:00;;;;;;;28.08;24.33;;;;;;;;;;5047203;28;20242;-69
2021/08/05 01:15:26;;;;;;;28.70;24.45;;;;;;;;;;5046445;28;20178;-69
2021/08/05 01:17:53;;;;;;;22.90;20.60;;;;;;;;;;5051373;28;20200;-70
2021/08/05 01:20:21;;;;;;;24.02;21.17;;;;;;;;;;5047868;28;20272;-70
2021/08/05 01:22:57;;;;;;;31.05;26.95;;;;;;;;;;5049321;28;20174;-69
2021/08/05 01:25:31;;;;;;;29.75;26.60;;;;;;;;;;5049882;28;20670;-69
2021/08/05 01:27:58;;;;;;;34.30;29.40;;;;;;;;;;5050472;28;20231;-70
2021/08/05 01:30:25;;;;;;;37.42;33.47;;;;;;;;;;5032008;28;20242;-70
2021/08/05 01:32:51;;;;;;;36.97;32.47;;;;;;;;;;5040416;28;20417;-71
2021/08/05 01:35:16;;;;;;;35.58;31.38;;;;;;;;;;5047295;28;20239;-70
2021/08/05 01:37:41;;;;;;;35.03;30.65;;;;;;;;;;5045918;28;20335;-70
2021/08/05 01:40:07;;;;;;;36.90;33.00;;;;;;;;;;5047572;28;20486;-70
2021/08/05 01:42:33;;;;;;;29.85;26.45;;;;;;;;;;5048533;28;20596;-70
2021/08/05 01:44:58;;;;;;;32.97;29.45;;;;;;;;;;5050158;28;20181;-70
2021/08/05 01:47:24;;;;;;;26.02;23.25;;;;;;;;;;5047110;28;20587;-70
2021/08/05 01:49:49;;;;;;;31.33;27.70;;;;;;;;;;5043732;28;20177;-68
2021/08/05 01:52:16;;;;;;;25.98;23.38;;;;;;;;;;5051345;28;20265;-68
2021/08/05 01:54:41;;;;;;;27.88;24.88;;;;;;;;;;5049053;28;20292;-68
2021/08/05 01:57:10;;;;;;;23.40;21.05;;;;;;;;;;5050212;28;20248;-69
2021/08/05 01:59:36;;;;;;;30.52;27.20;;;;;;;;;;5047033;28;20173;-68
2021/08/05 02:02:02;;;;;;;31.30;28.10;;;;;;;;;;5049192;28;20242;-68
2021/08/05 02:04:43;;;;;;;29.05;25.92;;;;;;;;;;5041728;28;20527;-68
2021/08/05 02:07:14;;;;;;;30.95;26.85;;;;;;;;;;5048800;28;20181;-68
2021/08/05 02:09:41;;;;;;;31.50;27.85;;;;;;;;;;5062937;22;20251;-71
2021/08/05 02:12:06;;;;;;;29.15;25.80;;;;;;;;;;5048969;28;20182;-71
2021/08/05 02:14:34;;;;;;;29.02;24.55;;;;;;;;;;5049919;28;20255;-71
2021/08/05 02:17:00;;;;;;;38.17;30.98;;;;;;;;;;5049100;28;20266;-69
2021/08/05 02:19:25;;;;;;;24.75;21.98;;;;;;;;;;5030662;28;20197;-72
2021/08/05 02:21:51;;;;;;;34.10;28.88;;;;;;;;;;5050268;28;20546;-71
2021/08/05 02:24:17;;;;;;;36.20;28.85;;;;;;;;;;5050074;28;20643;-71
2021/08/05 02:26:42;;;;;;;48.85;35.60;;;;;;;;;;5050027;28;20213;-72
2021/08/05 02:29:08;;;;;;;41.22;33.40;;;;;;;;;;5048767;28;20251;-69
2021/08/05 02:31:36;;;;;;;53.35;40.10;;;;;;;;;;5048369;28;20217;-70
2021/08/05 02:34:03;;;;;;;46.38;36.15;;;;;;;;;;5040977;28;20623;-70
2021/08/05 02:36:28;;;;;;;38.03;32.33;;;;;;;;;;5048797;28;20173;-70
2021/08/05 02:38:53;;;;;;;35.60;29.55;;;;;;;;;;5046585;28;20255;-70
2021/08/05 02:41:19;;;;;;;40.30;32.92;;;;;;;;;;5040837;28;20165;-69
2021/08/05 02:43:44;;;;;;;33.05;27.92;;;;;;;;;;5047619;28;20181;-70
2021/08/05 02:46:10;;;;;;;29.10;25.98;;;;;;;;;;5046997;28;20224;-71
2021/08/05 02:48:36;;;;;;;27.88;24.92;;;;;;;;;;5043668;28;20200;-70
2021/08/05 02:51:02;;;;;;;33.33;28.75;;;;;;;;;;5048554;28;20182;-70
2021/08/05 02:53:27;;;;;;;35.45;27.90;;;;;;;;;;5054575;28;20220;-69
2021/08/05 02:55:52;;;;;;;31.33;27.15;;;;;;;;;;5058473;28;20204;-69
2021/08/05 02:58:18;;;;;;;34.17;28.88;;;;;;;;;;5048389;28;20197;-69
2021/08/05 03:00:43;;;;;;;32.63;27.88;;;;;;;;;;5049998;28;20192;-69
2021/08/05 03:03:09;;;;;;;39.67;31.73;;;;;;;;;;5042663;28;20177;-70
2021/08/05 03:05:34;;;;;;;38.13;30.50;;;;;;;;;;5047548;28;20177;-70
2021/08/05 03:07:59;;;;;;;36.10;29.23;;;;;;;;;;5047901;28;20216;-69
2021/08/05 03:10:24;;;;;;;40.72;30.05;;;;;;;;;;5047643;28;20180;-71
2021/08/05 03:12:49;;;;;;;35.03;28.35;;;;;;;;;;5054654;28;20169;-69
2021/08/05 03:15:15;;;;;;;34.15;28.25;;;;;;;;;;5046007;28;20220;-70
2021/08/05 03:17:40;;;;;;;33.75;27.92;;;;;;;;;;5055851;28;20184;-69
2021/08/05 03:20:06;;;;;;;34.28;29.23;;;;;;;;;;5049233;28;20192;-69
2021/08/05 03:22:31;;;;;;;33.95;26.52;;;;;;;;;;5050098;28;20178;-70
2021/08/05 03:24:56;;;;;;;35.53;28.95;;;;;;;;;;5049272;28;20235;-70
2021/08/05 03:27:22;;;;;;;36.70;30.00;;;;;;;;;;5058486;28;20198;-71
2021/08/05 03:29:47;;;;;;;37.95;31.35;;;;;;;;;;5057335;28;20237;-70
2021/08/05 03:32:12;;;;;;;32.65;28.25;;;;;;;;;;5050319;28;20182;-69
2021/08/05 03:34:37;;;;;;;37.07;30.27;;;;;;;;;;5041068;28;20205;-70
2021/08/05 03:37:02;;;;;;;41.40;33.72;;;;;;;;;;5059670;28;20436;-70
2021/08/05 03:39:28;;;;;;;37.55;32.83;;;;;;;;;;5051519;28;20210;-69
2021/08/05 03:41:53;;;;;;;30.92;26.65;;;;;;;;;;5057108;28;20292;-70
2021/08/05 03:44:18;;;;;;;29.00;25.90;;;;;;;;;;5051214;28;20181;-70
2021/08/05 03:46:43;;;;;;;31.70;28.15;;;;;;;;;;5051204;28;20726;-70
2021/08/05 03:49:08;;;;;;;26.73;23.13;;;;;;;;;;5042936;28;20194;-70
2021/08/05 03:51:34;;;;;;;28.30;25.27;;;;;;;;;;5052705;28;20178;-70
2021/08/05 03:53:59;;;;;;;26.83;23.85;;;;;;;;;;5051636;28;20188;-70
2021/08/05 03:56:25;;;;;;;31.70;27.30;;;;;;;;;;5053745;28;20182;-70
2021/08/05 03:58:50;;;;;;;22.02;19.73;;;;;;;;;;5054918;28;20202;-70
2021/08/05 04:01:15;;;;;;;27.27;24.38;;;;;;;;;;5049392;28;20177;-70
2021/08/05 04:03:40;;;;;;;28.10;24.33;;;;;;;;;;5059099;28;20200;-70
2021/08/05 04:06:05;;;;;;;26.63;23.67;;;;;;;;;;5057207;28;20216;-70
2021/08/05 04:08:31;;;;;;;24.23;21.67;;;;;;;;;;5054233;28;20270;-70
2021/08/05 04:10:56;;;;;;;26.45;23.38;;;;;;;;;;5052028;28;20655;-70
2021/08/05 04:13:21;;;;;;;25.70;22.92;;;;;;;;;;5032619;28;20813;-71
2021/08/05 04:15:46;;;;;;;23.08;20.30;;;;;;;;;;5057109;28;20178;-71
2021/08/05 04:18:11;;;;;;;24.45;22.00;;;;;;;;;;5054143;28;20194;-71
2021/08/05 04:20:37;;;;;;;24.98;22.33;;;;;;;;;;5049527;28;20192;-71
2021/08/05 04:23:02;;;;;;;24.48;22.08;;;;;;;;;;5051966;28;20193;-71
2021/08/05 04:25:27;;;;;;;24.77;22.23;;;;;;;;;;5051439;28;20236;-71
2021/08/05 04:27:52;;;;;;;23.63;21.08;;;;;;;;;;5053961;28;20202;-69
2021/08/05 04:30:18;;;;;;;23.48;21.15;;;;;;;;;;5052883;28;20182;-71
2021/08/05 04:32:43;;;;;;;23.10;20.67;;;;;;;;;;5054841;28;20252;-71
2021/08/05 04:35:09;;;;;;;22.73;20.27;;;;;;;;;;5051552;28;20561;-71
2021/08/05 04:37:34;;;;;;;24.45;21.98;;;;;;;;;;5052556;28;20204;-71
2021/08/05 04:39:59;;;;;;;21.17;19.08;;;;;;;;;;5051811;28;20654;-71
2021/08/05 04:42:25;;;;;;;19.02;17.23;;;;;;;;;;5050984;28;20169;-71
2021/08/05 04:44:50;;;;;;;18.40;16.52;;;;;;;;;;5034643;28;20188;-71
2021/08/05 04:47:15;;;;;;;21.10;19.00;;;;;;;;;;5050018;28;20185;-71
2021/08/05 04:49:41;;;;;;;22.00;19.90;;;;;;;;;;5046234;28;20624;-72
2021/08/05 04:52:06;;;;;;;22.58;20.38;;;;;;;;;;5026082;28;20208;-69
2021/08/05 04:54:32;;;;;;;20.83;18.77;;;;;;;;;;5021981;28;20258;-71
2021/08/05 04:56:57;;;;;;;19.25;17.25;;;;;;;;;;5029888;28;20193;-71
2021/08/05 04:59:22;;;;;;;21.00;19.05;;;;;;;;;;5032618;28;20235;-71
2021/08/05 05:01:47;;;;;;;22.75;20.25;;;;;;;;;;5029140;28;20275;-71
2021/08/05 05:04:13;;;;;;;20.90;18.70;;;;;;;;;;5029106;28;20582;-70
2021/08/05 05:06:38;;;;;;;23.55;21.08;;;;;;;;;;5029132;28;20190;-71
2021/08/05 05:09:04;;;;;;;23.38;20.75;;;;;;;;;;5029699;28;20256;-71
2021/08/05 05:11:30;;;;;;;23.42;21.23;;;;;;;;;;5031517;28;20195;-71
2021/08/05 05:13:55;;;;;;;23.45;21.30;;;;;;;;;;5018636;28;20221;-71
2021/08/05 05:16:20;;;;;;;23.15;20.95;;;;;;;;;;5017602;28;20178;-71
2021/08/05 05:18:46;;;;;;;23.70;21.38;;;;;;;;;;5033373;28;20202;-70
2021/08/05 05:21:11;;;;;;;23.17;20.98;;;;;;;;;;5034261;28;20544;-71
2021/08/05 05:23:36;;;;;;;21.33;19.42;;;;;;;;;;5031548;28;20189;-70
2021/08/05 05:26:02;;;;;;;23.15;20.80;;;;;;;;;;5031292;28;20196;-70
2021/08/05 05:28:27;;;;;;;23.45;21.25;;;;;;;;;;5032298;28;20201;-69
2021/08/05 05:30:52;;;;;;;22.02;19.83;;;;;;;;;;5035925;28;20271;-69
2021/08/05 05:33:17;;;;;;;21.67;19.65;;;;;;;;;;5033021;28;20205;-69
2021/08/05 05:35:42;;;;;;;20.38;18.17;;;;;;;;;;5031626;28;20182;-69
2021/08/05 05:38:08;;;;;;;19.83;18.13;;;;;;;;;;5039507;28;20562;-70
2021/08/05 05:40:33;;;;;;;19.48;17.75;;;;;;;;;;5016762;28;20186;-72
2021/08/05 05:43:00;;;;;;;21.13;18.95;;;;;;;;;;5020638;28;20182;-71
2021/08/05 05:45:26;;;;;;;19.02;17.33;;;;;;;;;;5029520;28;20201;-70
2021/08/05 05:47:51;;;;;;;18.42;16.73;;;;;;;;;;5029270;28;20309;-69
2021/08/05 05:50:17;;;;;;;17.88;16.25;;;;;;;;;;5029130;28;20196;-71
2021/08/05 05:52:42;;;;;;;18.58;16.45;;;;;;;;;;5035788;28;20181;-71
2021/08/05 05:55:08;;;;;;;18.30;16.67;;;;;;;;;;5029433;28;20198;-70
2021/08/05 05:57:34;;;;;;;18.25;16.55;;;;;;;;;;5030442;28;20185;-70
2021/08/05 05:59:59;;;;;;;17.80;16.20;;;;;;;;;;5033099;28;20186;-70
2021/08/05 06:02:24;;;;;;;16.98;15.48;;;;;;;;;;5032397;28;20174;-71
2021/08/05 06:04:49;;;;;;;16.90;15.07;;;;;;;;;;5032439;28;20557;-70
2021/08/05 06:07:14;;;;;;;15.27;14.07;;;;;;;;;;5036772;28;20419;-70
2021/08/05 06:09:39;;;;;;;14.20;13.00;;;;;;;;;;5035438;28;20459;-68
2021/08/05 06:12:05;;;;;;;15.90;14.60;;;;;;;;;;5035358;28;20785;-69
2021/08/05 06:14:30;;;;;;;15.55;14.15;;;;;;;;;;5029562;28;20220;-69
2021/08/05 06:16:55;;;;;;;14.83;13.57;;;;;;;;;;5029699;28;22054;-69
2021/08/05 06:19:20;;;;;;;13.80;12.60;;;;;;;;;;5028372;28;20439;-69
2021/08/05 06:21:46;;;;;;;13.45;12.35;;;;;;;;;;5029129;28;20610;-69
2021/08/05 06:24:12;;;;;;;12.85;11.63;;;;;;;;;;5033524;28;20186;-69
2021/08/05 06:26:38;;;;;;;14.63;13.23;;;;;;;;;;5016243;28;20181;-69
2021/08/05 06:29:03;;;;;;;14.80;13.55;;;;;;;;;;5038948;28;20568;-68
2021/08/05 06:31:29;;;;;;;14.30;13.05;;;;;;;;;;5030153;28;20182;-69
2021/08/05 06:33:54;;;;;;;14.45;13.27;;;;;;;;;;5031928;28;20870;-68
2021/08/05 06:36:20;;;;;;;14.52;13.05;;;;;;;;;;5030325;28;20178;-69
2021/08/05 06:38:45;;;;;;;15.10;13.75;;;;;;;;;;5042115;28;20202;-70
2021/08/05 06:41:10;;;;;;;14.15;12.77;;;;;;;;;;5032480;28;20173;-69
2021/08/05 06:43:35;;;;;;;14.30;12.90;;;;;;;;;;5031916;28;20262;-69
2021/08/05 06:46:01;;;;;;;12.73;11.52;;;;;;;;;;5030699;28;20196;-70
2021/08/05 06:48:26;;;;;;;13.57;12.17;;;;;;;;;;5036794;28;20224;-70
2021/08/05 06:50:51;;;;;;;12.53;11.23;;;;;;;;;;5016964;28;20446;-70
2021/08/05 06:53:16;;;;;;;12.05;11.05;;;;;;;;;;5018127;28;20458;-69
2021/08/05 06:55:41;;;;;;;13.63;12.43;;;;;;;;;;5018195;28;20181;-69
2021/08/05 06:58:07;;;;;;;12.50;11.45;;;;;;;;;;5033981;28;20904;-69
2021/08/05 07:00:32;;;;;;;13.30;12.20;;;;;;;;;;5029340;28;20646;-69
2021/08/05 07:02:57;;;;;;;13.80;12.48;;;;;;;;;;5034576;28;20417;-69
2021/08/05 07:05:23;;;;;;;12.40;11.40;;;;;;;;;;5035664;28;20548;-69
2021/08/05 07:07:50;;;;;;;14.32;12.95;;;;;;;;;;5040711;28;20174;-69
2021/08/05 07:10:15;;;;;;;15.90;14.35;;;;;;;;;;5033872;28;20185;-70
2021/08/05 07:12:41;;;;;;;16.35;14.25;;;;;;;;;;5035687;28;20196;-70
2021/08/05 07:15:06;;;;;;;17.98;15.90;;;;;;;;;;5038371;28;20331;-69
2021/08/05 07:17:31;;;;;;;16.50;14.88;;;;;;;;;;5037807;28;20178;-69
2021/08/05 07:19:56;;;;;;;17.90;16.33;;;;;;;;;;5036798;28;20712;-69
2021/08/05 07:22:21;;;;;;;16.23;14.73;;;;;;;;;;5032578;28;20651;-69
2021/08/05 07:24:47;;;;;;;15.05;13.65;;;;;;;;;;5033851;28;20185;-69
2021/08/05 07:27:12;;;;;;;16.10;14.70;;;;;;;;;;5034393;28;20187;-69
2021/08/05 07:29:37;;;;;;;15.90;14.38;;;;;;;;;;5031825;28;20625;-69
2021/08/05 07:32:06;;;;;;;16.48;14.90;;;;;;;;;;5033112;28;20181;-69
2021/08/05 07:34:32;;;;;;;14.25;12.95;;;;;;;;;;5040543;28;20235;-70
2021/08/05 07:36:57;;;;;;;15.57;14.18;;;;;;;;;;5038257;28;20178;-69
2021/08/05 07:39:22;;;;;;;15.20;13.80;;;;;;;;;;5037628;28;20204;-69
2021/08/05 07:41:47;;;;;;;17.07;15.47;;;;;;;;;;5033278;28;20185;-69
2021/08/05 07:44:13;;;;;;;15.20;13.90;;;;;;;;;;5038411;28;20429;-68
2021/08/05 07:46:38;;;;;;;15.88;13.93;;;;;;;;;;5032604;28;20505;-69
2021/08/05 07:49:03;;;;;;;15.45;14.05;;;;;;;;;;5034012;28;20324;-69
2021/08/05 07:51:29;;;;;;;17.15;15.60;;;;;;;;;;5032103;28;20190;-69
2021/08/05 07:53:54;;;;;;;17.98;13.77;;;;;;;;;;5019099;28;20251;-70
2021/08/05 07:56:21;;;;;;;17.27;15.48;;;;;;;;;;5034624;28;20173;-70
2021/08/05 07:58:46;;;;;;;18.10;14.52;;;;;;;;;;5039105;28;20817;-69
2021/08/05 08:01:12;;;;;;;13.15;11.95;;;;;;;;;;5040156;28;20661;-70
2021/08/05 08:03:37;;;;;;;13.67;12.43;;;;;;;;;;5038756;28;20718;-70
2021/08/05 08:06:02;;;;;;;15.80;14.40;;;;;;;;;;5037676;28;20426;-68
2021/08/05 08:08:27;;;;;;;13.88;12.73;;;;;;;;;;5054697;22;20756;-70
2021/08/05 08:10:52;;;;;;;15.25;13.90;;;;;;;;;;5036119;28;20183;-70
2021/08/05 08:13:17;;;;;;;13.67;12.47;;;;;;;;;;5021520;28;20197;-70
2021/08/05 08:15:43;;;;;;;14.17;12.97;;;;;;;;;;5019656;28;20772;-70
2021/08/05 08:18:08;;;;;;;13.48;12.38;;;;;;;;;;5020394;28;20195;-70
2021/08/05 08:20:33;;;;;;;14.33;13.13;;;;;;;;;;5013926;28;20194;-70
2021/08/05 08:22:58;;;;;;;12.65;11.45;;;;;;;;;;5016551;28;20182;-70
2021/08/05 08:25:24;;;;;;;14.63;13.32;;;;;;;;;;5020140;28;20696;-70
2021/08/05 08:27:49;;;;;;;13.45;12.35;;;;;;;;;;5013414;28;20179;-71
2021/08/05 08:30:14;;;;;;;14.20;12.95;;;;;;;;;;5022445;28;20212;-70
2021/08/05 08:32:40;;;;;;;15.57;14.27;;;;;;;;;;5019378;28;20183;-70
2021/08/05 08:35:06;;;;;;;13.40;11.98;;;;;;;;;;5013463;28;20202;-70
2021/08/05 08:37:31;;;;;;;14.95;13.40;;;;;;;;;;5021338;28;20186;-70
2021/08/05 08:39:56;;;;;;;13.47;12.23;;;;;;;;;;5014315;28;20253;-70
2021/08/05 08:42:21;;;;;;;13.73;12.52;;;;;;;;;;5015151;28;20261;-70
2021/08/05 08:44:46;;;;;;;14.60;13.07;;;;;;;;;;5019463;28;20386;-69
2021/08/05 08:47:12;;;;;;;14.37;13.17;;;;;;;;;;5013707;28;20197;-70
2021/08/05 08:49:41;;;;;;;13.77;12.68;;;;;;;;;;5018676;28;20320;-70
2021/08/05 08:52:07;;;;;;;13.98;12.77;;;;;;;;;;5015279;28;20232;-70
2021/08/05 08:54:32;;;;;;;15.77;14.38;;;;;;;;;;5018645;28;20208;-70
2021/08/05 08:56:58;;;;;;;12.53;11.23;;;;;;;;;;5018546;28;20182;-70
2021/08/05 08:59:24;;;;;;;12.82;11.73;;;;;;;;;;5014239;28;20514;-70
2021/08/05 09:01:49;;;;;;;15.20;13.90;;;;;;;;;;5019052;28;20214;-70
2021/08/05 09:04:15;;;;;;;13.18;12.18;;;;;;;;;;5018225;28;20758;-70
2021/08/05 09:06:41;;;;;;;13.18;11.98;;;;;;;;;;5018924;28;20170;-70
2021/08/05 09:09:06;;;;;;;13.65;12.30;;;;;;;;;;5014197;28;20222;-70
2021/08/05 09:11:31;;;;;;;12.07;11.15;;;;;;;;;;5011376;28;20266;-70
2021/08/05 09:13:56;;;;;;;10.90;9.97;;;;;;;;;;5021311;28;20728;-70
2021/08/05 09:16:23;;;;;;;10.17;9.20;;;;;;;;;;5015342;28;20441;-70
2021/08/05 09:18:48;;;;;;;10.13;9.13;;;;;;;;;;5015568;28;20464;-70
2021/08/05 09:21:18;;;;;;;13.67;12.57;;;;;;;;;;5016431;28;20182;-70
2021/08/05 09:24:04;;;;;;;11.00;10.10;;;;;;;;;;5014973;28;20974;-70
2021/08/05 09:26:35;;;;;;;11.50;10.57;;;;;;;;;;5016485;28;20295;-70
2021/08/05 09:29:10;;;;;;;12.38;11.35;;;;;;;;;;5011613;28;20695;-69
2021/08/05 09:31:36;;;;;;;12.75;11.68;;;;;;;;;;5005493;28;20205;-70
2021/08/05 09:34:03;;;;;;;13.50;12.40;;;;;;;;;;5018122;28;20202;-70
2021/08/05 09:36:28;;;;;;;14.68;13.38;;;;;;;;;;5015257;28;20182;-70
2021/08/05 09:38:54;;;;;;;13.90;12.73;;;;;;;;;;5016241;28;20201;-70
2021/08/05 09:41:19;;;;;;;14.75;13.50;;;;;;;;;;4998060;28;20178;-70
2021/08/05 09:43:45;;;;;;;12.27;11.38;;;;;;;;;;5024986;28;20178;-70
2021/08/05 09:46:13;;;;;;;15.23;13.85;;;;;;;;;;5011122;28;20273;-70
2021/08/05 09:48:39;;;;;;;14.20;12.93;;;;;;;;;;5002580;28;20203;-70
2021/08/05 09:51:06;;;;;;;13.70;12.57;;;;;;;;;;5021476;28;20182;-70
2021/08/05 09:53:31;;;;;;;12.80;11.70;;;;;;;;;;5018871;28;20248;-70
2021/08/05 09:56:12;;;;;;;12.07;11.07;;;;;;;;;;5017787;28;20224;-70
2021/08/05 09:58:38;;;;;;;12.63;11.43;;;;;;;;;;5019577;28;20447;-70
2021/08/05 10:01:07;;;;;;;12.77;11.63;;;;;;;;;;5014258;28;20177;-69
2021/08/05 10:03:34;;;;;;;11.63;10.63;;;;;;;;;;5011964;28;20716;-70
2021/08/05 10:06:01;;;;;;;11.45;10.32;;;;;;;;;;5014331;28;20288;-70
2021/08/05 10:08:39;;;;;;;12.13;10.93;;;;;;;;;;5017917;28;20218;-71
2021/08/05 10:11:05;;;;;;;11.70;10.70;;;;;;;;;;5017836;28;20177;-69
2021/08/05 10:13:34;;;;;;;12.95;11.75;;;;;;;;;;4996224;28;21064;-70
2021/08/05 10:15:59;;;;;;;11.48;10.57;;;;;;;;;;5011655;28;20643;-70
2021/08/05 10:18:27;;;;;;;11.20;10.30;;;;;;;;;;5021122;28;20216;-70
2021/08/05 10:20:52;;;;;;;11.23;10.30;;;;;;;;;;5017852;28;20178;-70
2021/08/05 10:23:18;;;;;;;12.10;10.90;;;;;;;;;;5016147;28;20577;-70
2021/08/05 10:25:44;;;;;;;10.60;9.10;;;;;;;;;;5022130;28;21938;-70
2021/08/05 10:28:09;;;;;;;10.43;9.43;;;;;;;;;;5018362;28;20443;-70
2021/08/05 10:30:35;;;;;;;7.97;7.32;;;;;;;;;;5018325;28;20211;-70
2021/08/05 10:33:00;;;;;;;9.30;8.40;;;;;;;;;;5016107;28;20185;-70
2021/08/05 10:35:25;;;;;;;8.50;7.75;;;;;;;;;;5012460;28;20558;-70
2021/08/05 10:37:51;;;;;;;10.68;9.63;;;;;;;;;;5003690;28;20656;-70
2021/08/05 10:40:16;;;;;;;11.80;9.73;;;;;;;;;;5015150;28;20181;-70
2021/08/05 10:42:42;;;;;;;12.82;10.98;;;;;;;;;;5016304;28;20189;-70
2021/08/05 10:45:08;;;;;;;12.68;11.48;;;;;;;;;;5014512;28;20198;-70
2021/08/05 10:47:34;;;;;;;12.57;11.57;;;;;;;;;;5016469;28;20628;-69
2021/08/05 10:50:06;;;;;;;9.50;8.55;;;;;;;;;;5015567;28;20293;-69
2021/08/05 10:52:35;;;;;;;12.40;11.35;;;;;;;;;;5016644;28;20190;-71
2021/08/05 10:55:00;;;;;;;10.57;9.68;;;;;;;;;;5015157;28;20214;-70
2021/08/05 10:57:26;;;;;;;11.60;10.50;;;;;;;;;;5018700;28;20191;-70
2021/08/05 10:59:58;;;;;;;12.23;11.13;;;;;;;;;;5016930;28;20202;-69
2021/08/05 11:02:41;;;;;;;11.65;10.55;;;;;;;;;;4998307;28;20620;-69
2021/08/05 11:05:06;;;;;;;12.02;10.82;;;;;;;;;;4993966;28;20197;-70
2021/08/05 11:07:32;;;;;;;12.20;11.10;;;;;;;;;;5009746;28;20178;-70
2021/08/05 11:10:12;;;;;;;12.20;10.02;;;;;;;;;;5009877;28;20218;-70
2021/08/05 11:12:41;;;;;;;11.63;10.55;;;;;;;;;;4990715;28;20189;-69
2021/08/05 11:15:31;;;;;;;10.85;9.77;;;;;;;;;;5013960;28;20582;-69
2021/08/05 11:18:18;;;;;;;10.95;9.95;;;;;;;;;;5011667;28;20187;-70
2021/08/05 11:20:56;;;;;;;14.98;13.52;;;;;;;;;;5007551;28;22311;-70
2021/08/05 11:23:34;;;;;;;15.00;13.70;;;;;;;;;;5008916;28;20712;-70
2021/08/05 11:26:00;;;;;;;12.98;11.95;;;;;;;;;;4995664;28;20189;-69
2021/08/05 11:28:32;;;;;;;13.17;12.07;;;;;;;;;;5007687;28;20199;-70
2021/08/05 11:30:58;;;;;;;14.07;12.85;;;;;;;;;;5011350;28;20796;-70
2021/08/05 11:33:45;;;;;;;12.45;11.35;;;;;;;;;;5015744;28;20202;-71
2021/08/05 11:36:10;;;;;;;13.55;12.45;;;;;;;;;;5010420;28;20287;-70
2021/08/05 11:38:53;;;;;;;17.13;15.63;;;;;;;;;;5016459;28;20634;-69
2021/08/05 11:41:38;;;;;;;12.68;11.68;;;;;;;;;;5017793;28;20493;-70
2021/08/05 11:44:22;;;;;;;15.20;13.82;;;;;;;;;;4994975;28;20230;-70
2021/08/05 11:47:07;;;;;;;11.48;10.27;;;;;;;;;;5008647;28;20244;-69
2021/08/05 11:49:32;;;;;;;11.15;10.18;;;;;;;;;;5012997;28;20202;-70
2021/08/05 11:51:58;;;;;;;12.55;11.55;;;;;;;;;;5014912;28;20894;-70
2021/08/05 11:54:23;;;;;;;13.65;12.45;;;;;;;;;;5018324;28;20809;-69
2021/08/05 11:56:58;;;;;;;13.48;12.05;;;;;;;;;;5020273;28;20182;-69
2021/08/05 11:59:33;;;;;;;14.05;12.85;;;;;;;;;;5005086;28;20201;-69
2021/08/05 12:02:05;;;;;;;13.43;12.43;;;;;;;;;;5019246;28;20674;-70
2021/08/05 12:04:30;;;;;;;11.90;10.82;;;;;;;;;;5017113;28;20273;-69
2021/08/05 12:07:22;;;;;;;14.20;13.03;;;;;;;;;;4997154;28;20240;-69
2021/08/05 12:09:51;;;;;;;11.35;10.50;;;;;;;;;;5015535;28;20222;-70
2021/08/05 12:12:17;;;;;;;14.13;12.93;;;;;;;;;;5005400;28;20252;-70
2021/08/05 12:14:50;;;;;;;12.50;11.40;;;;;;;;;;5019488;28;20205;-70
2021/08/05 12:17:15;;;;;;;13.13;11.93;;;;;;;;;;5022332;28;20220;-70
2021/08/05 12:19:47;;;;;;;12.52;11.57;;;;;;;;;;5028105;28;20194;-70
2021/08/05 12:22:12;;;;;;;12.40;11.35;;;;;;;;;;5026326;28;20186;-68
2021/08/05 12:24:41;;;;;;;11.67;10.77;;;;;;;;;;5018217;28;20661;-70
2021/08/05 12:27:06;;;;;;;12.20;11.20;;;;;;;;;;5016164;28;20204;-69
2021/08/05 12:29:31;;;;;;;13.07;11.97;;;;;;;;;;5016864;28;20203;-69
2021/08/05 12:32:05;;;;;;;12.60;11.50;;;;;;;;;;5017117;28;20506;-69
2021/08/05 12:34:30;;;;;;;12.55;11.45;;;;;;;;;;5017381;28;20751;-69
2021/08/05 12:36:55;;;;;;;11.90;11.00;;;;;;;;;;5016958;28;20186;-69
2021/08/05 12:39:24;;;;;;;13.47;12.27;;;;;;;;;;5020599;28;20196;-70
2021/08/05 12:41:52;;;;;;;12.15;11.05;;;;;;;;;;5015516;28;20242;-70
2021/08/05 12:44:22;;;;;;;10.02;9.13;;;;;;;;;;5018122;28;20289;-70
2021/08/05 12:46:49;;;;;;;12.93;11.77;;;;;;;;;;5020182;28;20588;-70
2021/08/05 12:49:15;;;;;;;11.75;10.68;;;;;;;;;;5020133;28;20202;-69
2021/08/05 12:51:40;;;;;;;12.55;11.38;;;;;;;;;;5011393;28;20193;-69
2021/08/05 12:54:12;;;;;;;11.23;10.15;;;;;;;;;;5013568;28;20210;-69
2021/08/05 12:56:38;;;;;;;13.10;12.00;;;;;;;;;;4997046;28;20178;-70
2021/08/05 12:59:03;;;;;;;12.02;10.95;;;;;;;;;;5023081;28;20203;-70
2021/08/05 13:01:28;;;;;;;11.77;10.67;;;;;;;;;;5017378;28;20170;-69
2021/08/05 13:03:55;;;;;;;12.37;11.37;;;;;;;;;;5019735;28;20435;-69
2021/08/05 13:06:21;;;;;;;13.15;12.05;;;;;;;;;;5017498;28;20183;-69
2021/08/05 13:08:47;;;;;;;10.88;9.95;;;;;;;;;;5017200;28;20251;-70
2021/08/05 13:11:14;;;;;;;15.60;14.20;;;;;;;;;;5006327;28;20178;-70
2021/08/05 13:13:42;;;;;;;11.75;10.75;;;;;;;;;;5001026;28;20202;-70
2021/08/05 13:16:21;;;;;;;7.88;7.28;;;;;;;;;;4999498;28;20175;-70
2021/08/05 13:18:59;;;;;;;11.98;9.27;;;;;;;;;;5014996;28;20197;-69
2021/08/05 13:21:25;;;;;;;9.80;8.90;;;;;;;;;;5016354;28;20182;-70
2021/08/05 13:23:50;;;;;;;9.38;8.50;;;;;;;;;;5015801;28;20178;-70
2021/08/05 13:26:31;;;;;;;10.18;8.93;;;;;;;;;;5013373;28;20802;-70
2021/08/05 13:28:57;;;;;;;9.35;8.35;;;;;;;;;;5014067;28;20210;-70
2021/08/05 13:31:22;;;;;;;11.37;8.70;;;;;;;;;;5014943;28;20567;-69
2021/08/05 13:34:05;;;;;;;8.33;7.63;;;;;;;;;;5016743;28;20210;-70
2021/08/05 13:36:34;;;;;;;9.32;8.32;;;;;;;;;;5005660;28;20182;-70
2021/08/05 13:38:59;;;;;;;10.25;8.98;;;;;;;;;;5016581;28;20870;-70
2021/08/05 13:41:24;;;;;;;8.20;7.40;;;;;;;;;;5018094;28;20201;-70
2021/08/05 13:43:49;;;;;;;7.23;6.63;;;;;;;;;;5019846;28;21044;-70
2021/08/05 13:46:14;;;;;;;7.17;6.47;;;;;;;;;;5013673;28;20186;-70
2021/08/05 13:48:40;;;;;;;6.40;5.77;;;;;;;;;;5018899;28;20537;-70
2021/08/05 13:51:05;;;;;;;5.53;5.03;;;;;;;;;;5013616;28;20575;-69
2021/08/05 13:53:30;;;;;;;8.37;7.63;;;;;;;;;;4995211;28;20383;-70
2021/08/05 13:55:56;;;;;;;7.50;6.90;;;;;;;;;;5011426;28;20198;-70
2021/08/05 13:58:21;;;;;;;8.10;7.40;;;;;;;;;;5016040;28;20256;-70
2021/08/05 14:00:47;;;;;;;7.00;6.50;;;;;;;;;;5019761;28;20187;-69
2021/08/05 14:03:12;;;;;;;7.97;7.13;;;;;;;;;;5015249;28;20190;-69
2021/08/05 14:05:37;;;;;;;9.70;8.70;;;;;;;;;;5021999;28;20202;-70
2021/08/05 14:08:02;;;;;;;8.27;7.57;;;;;;;;;;4998775;28;20178;-72
2021/08/05 14:10:28;;;;;;;8.95;8.25;;;;;;;;;;5049680;22;20237;-70
2021/08/05 14:12:53;;;;;;;7.90;6.05;;;;;;;;;;5040640;28;20182;-70
2021/08/05 14:15:19;;;;;;;9.32;8.52;;;;;;;;;;5034504;28;20300;-70
2021/08/05 14:17:44;;;;;;;9.63;8.73;;;;;;;;;;5033787;28;20245;-68